sensor_id;sensor_type;location;lat;lon;timestamp;P1;durP1;ratioP1;P2;durP2;ratioP2
52744;SDS011;38637;49.984;20.426;2022-11-15T20:37:16;116.07;;;83.63;;
52744;SDS011;38637;49.984;20.426;2022-11-15T20:39:43;119.45;;;86.15;;
52744;SDS011;38637;49.984;20.426;2022-11-15T20:42:09;106.20;;;77.80;;
52744;SDS011;38637;49.984;20.426;2022-11-15T20:44:34;116.83;;;82.67;;
52744;SDS011;38637;49.984;20.426;2022-11-15T20:46:59;109.70;;;80.30;;
52744;SDS011;38637;49.984;20.426;2022-11-15T20:49:24;116.20;;;85.20;;
52744;SDS011;38637;49.984;20.426;2022-11-15T20:51:50;124.17;;;87.77;;
52744;SDS011;38637;49.984;20.426;2022-11-15T20:54:15;141.60;;;98.00;;
52744;SDS011;38637;49.984;20.426;2022-11-15T20:56:40;152.13;;;104.07;;
52744;SDS011;38637;49.984;20.426;2022-11-15T20:59:06;157.47;;;106.67;;
52744;SDS011;38637;49.984;20.426;2022-11-15T21:01:31;147.33;;;103.07;;
52744;SDS011;38637;49.984;20.426;2022-11-15T21:03:56;142.17;;;101.00;;
52744;SDS011;38637;49.984;20.426;2022-11-15T21:06:22;146.57;;;101.20;;
52744;SDS011;38637;49.984;20.426;2022-11-15T21:08:49;142.68;;;100.50;;
52744;SDS011;38637;49.984;20.426;2022-11-15T21:11:34;152.93;;;103.13;;
52744;SDS011;38637;49.984;20.426;2022-11-15T21:14:18;132.70;;;92.25;;
52744;SDS011;38637;49.984;20.426;2022-11-15T21:16:44;127.67;;;90.13;;
52744;SDS011;38637;49.984;20.426;2022-11-15T21:19:09;141.77;;;97.27;;
52744;SDS011;38637;49.984;20.426;2022-11-15T21:21:35;138.70;;;95.30;;
52744;SDS011;38637;49.984;20.426;2022-11-15T21:24:05;125.18;;;85.93;;
52744;SDS011;38637;49.984;20.426;2022-11-15T21:26:31;118.22;;;84.88;;
52744;SDS011;38637;49.984;20.426;2022-11-15T21:28:57;129.07;;;86.45;;
52744;SDS011;38637;49.984;20.426;2022-11-15T21:31:23;116.47;;;81.43;;
52744;SDS011;38637;49.984;20.426;2022-11-15T21:33:48;115.37;;;81.30;;
52744;SDS011;38637;49.984;20.426;2022-11-15T21:36:13;119.97;;;80.57;;
52744;SDS011;38637;49.984;20.426;2022-11-15T21:38:39;107.67;;;76.80;;
52744;SDS011;38637;49.984;20.426;2022-11-15T21:41:04;109.23;;;77.50;;
52744;SDS011;38637;49.984;20.426;2022-11-15T21:43:29;113.73;;;82.97;;
52744;SDS011;38637;49.984;20.426;2022-11-15T21:45:58;122.17;;;87.70;;
52744;SDS011;38637;49.984;20.426;2022-11-15T21:48:26;118.82;;;83.68;;
52744;SDS011;38637;49.984;20.426;2022-11-15T21:51:05;119.10;;;84.00;;
52744;SDS011;38637;49.984;20.426;2022-11-15T21:53:33;123.20;;;84.35;;
52744;SDS011;38637;49.984;20.426;2022-11-15T21:55:59;119.47;;;84.77;;
52744;SDS011;38637;49.984;20.426;2022-11-15T21:58:25;120.13;;;83.55;;
52744;SDS011;38637;49.984;20.426;2022-11-15T22:00:52;117.13;;;83.90;;
52744;SDS011;38637;49.984;20.426;2022-11-15T22:03:37;120.85;;;86.22;;
52744;SDS011;38637;49.984;20.426;2022-11-15T22:06:02;115.43;;;83.13;;
52744;SDS011;38637;49.984;20.426;2022-11-15T22:08:28;140.67;;;99.83;;
52744;SDS011;38637;49.984;20.426;2022-11-15T22:10:54;168.10;;;114.30;;
52744;SDS011;38637;49.984;20.426;2022-11-15T22:13:21;193.53;;;133.43;;
52744;SDS011;38637;49.984;20.426;2022-11-15T22:15:46;163.32;;;111.28;;
52744;SDS011;38637;49.984;20.426;2022-11-15T22:18:12;166.20;;;112.53;;
52744;SDS011;38637;49.984;20.426;2022-11-15T22:20:38;155.47;;;106.93;;
52744;SDS011;38637;49.984;20.426;2022-11-15T22:23:03;151.30;;;106.70;;
52744;SDS011;38637;49.984;20.426;2022-11-15T22:25:29;139.70;;;96.13;;
52744;SDS011;38637;49.984;20.426;2022-11-15T22:27:55;146.53;;;98.60;;
52744;SDS011;38637;49.984;20.426;2022-11-15T22:30:21;154.30;;;102.97;;
52744;SDS011;38637;49.984;20.426;2022-11-15T22:32:46;137.90;;;97.17;;
52744;SDS011;38637;49.984;20.426;2022-11-15T22:35:12;147.37;;;103.60;;
52744;SDS011;38637;49.984;20.426;2022-11-15T22:37:37;140.03;;;97.47;;
52744;SDS011;38637;49.984;20.426;2022-11-15T22:40:03;136.30;;;95.77;;
52744;SDS011;38637;49.984;20.426;2022-11-15T22:42:29;147.63;;;98.88;;
52744;SDS011;38637;49.984;20.426;2022-11-15T22:44:56;98.55;;;72.68;;
52744;SDS011;38637;49.984;20.426;2022-11-15T22:47:22;110.20;;;76.67;;
52744;SDS011;38637;49.984;20.426;2022-11-15T22:49:47;109.03;;;75.13;;
52744;SDS011;38637;49.984;20.426;2022-11-15T22:52:13;114.37;;;80.80;;
52744;SDS011;38637;49.984;20.426;2022-11-15T22:54:38;105.20;;;73.80;;
52744;SDS011;38637;49.984;20.426;2022-11-15T22:57:03;118.03;;;81.30;;
52744;SDS011;38637;49.984;20.426;2022-11-15T22:59:29;127.43;;;82.87;;
52744;SDS011;38637;49.984;20.426;2022-11-15T23:01:55;191.77;;;91.37;;
52744;SDS011;38637;49.984;20.426;2022-11-15T23:04:20;157.27;;;87.73;;
52744;SDS011;38637;49.984;20.426;2022-11-15T23:06:46;181.00;;;93.27;;
52744;SDS011;38637;49.984;20.426;2022-11-15T23:09:11;110.40;;;80.13;;
52744;SDS011;38637;49.984;20.426;2022-11-15T23:11:36;113.27;;;81.60;;
52744;SDS011;38637;49.984;20.426;2022-11-15T23:14:20;112.45;;;81.55;;
52744;SDS011;38637;49.984;20.426;2022-11-15T23:16:45;108.17;;;76.90;;
52744;SDS011;38637;49.984;20.426;2022-11-15T23:19:11;113.40;;;79.40;;
52744;SDS011;38637;49.984;20.426;2022-11-15T23:21:37;110.23;;;79.47;;
52744;SDS011;38637;49.984;20.426;2022-11-15T23:24:23;129.40;;;89.82;;
52744;SDS011;38637;49.984;20.426;2022-11-15T23:26:50;132.33;;;92.33;;
52744;SDS011;38637;49.984;20.426;2022-11-15T23:29:18;132.40;;;94.25;;
52744;SDS011;38637;49.984;20.426;2022-11-15T23:31:45;139.18;;;96.95;;
52744;SDS011;38637;49.984;20.426;2022-11-15T23:34:30;127.85;;;88.50;;
52744;SDS011;38637;49.984;20.426;2022-11-15T23:39:22;128.82;;;86.88;;
52744;SDS011;38637;49.984;20.426;2022-11-15T23:41:47;145.20;;;93.70;;
52744;SDS011;38637;49.984;20.426;2022-11-15T23:44:13;178.07;;;97.73;;
52744;SDS011;38637;49.984;20.426;2022-11-15T23:46:38;143.70;;;87.80;;
52744;SDS011;38637;49.984;20.426;2022-11-15T23:49:04;210.80;;;97.17;;
52744;SDS011;38637;49.984;20.426;2022-11-15T23:51:29;138.67;;;90.43;;
52744;SDS011;38637;49.984;20.426;2022-11-15T23:53:54;142.43;;;99.57;;
52744;SDS011;38637;49.984;20.426;2022-11-15T23:56:20;143.70;;;97.13;;
52744;SDS011;38637;49.984;20.426;2022-11-15T23:58:46;133.95;;;90.63;;
